Elysian, Minnesota
Current Conditions -  °F | °C
As of 5:13 AM on Thursday 23 Oct 2014 (Local Time) from KACQ Reporting Station
Overcast Overcast  
Wind Chill: 50°   Ceiling: 1100
Heat Index: 50°   Visibility: 7mi
Dew Point: 46°   Wind: 7mph
Humidity: 87%   Direction: 170°S
Pressure: 30.03"   Gusts: NA
Location:  44.2°N, 93.67°W
Report Text: KACQ 231013Z AUTO 17006KT 7SM OVC011 10/08 A3003 RMK AO2
Loading
Personal Weather Stations






























Interactive Weather Map
Tropical Storm Tracking
New forecast layout! Learn more

10-Day Weather Forecast

Advertisements
Track Severe Weather on mobile